sensor_id;sensor_type;location;lat;lon;timestamp;P1;durP1;ratioP1;P2;durP2;ratioP2
9559;SDS011;4818;50.860;4.648;2022-11-14T00:00:40;27.10;;;15.50;;
9559;SDS011;4818;50.860;4.648;2022-11-14T00:03:07;26.10;;;15.70;;
9559;SDS011;4818;50.860;4.648;2022-11-14T00:05:37;24.50;;;15.05;;
9559;SDS011;4818;50.860;4.648;2022-11-14T00:08:03;24.30;;;14.80;;
9559;SDS011;4818;50.860;4.648;2022-11-14T00:10:30;24.38;;;14.65;;
9559;SDS011;4818;50.860;4.648;2022-11-14T00:12:56;22.17;;;13.38;;
9559;SDS011;4818;50.860;4.648;2022-11-14T00:15:22;25.58;;;14.35;;
9559;SDS011;4818;50.860;4.648;2022-11-14T00:17:48;27.77;;;14.95;;
9559;SDS011;4818;50.860;4.648;2022-11-14T00:20:15;25.33;;;14.38;;
9559;SDS011;4818;50.860;4.648;2022-11-14T00:22:41;23.30;;;13.90;;
9559;SDS011;4818;50.860;4.648;2022-11-14T00:25:10;24.67;;;14.57;;
9559;SDS011;4818;50.860;4.648;2022-11-14T00:27:36;28.15;;;15.20;;
9559;SDS011;4818;50.860;4.648;2022-11-14T00:30:03;27.25;;;15.18;;
9559;SDS011;4818;50.860;4.648;2022-11-14T00:32:29;22.63;;;13.80;;
9559;SDS011;4818;50.860;4.648;2022-11-14T00:34:55;27.38;;;15.38;;
9559;SDS011;4818;50.860;4.648;2022-11-14T00:37:22;26.58;;;15.40;;
9559;SDS011;4818;50.860;4.648;2022-11-14T00:39:48;26.38;;;14.48;;
9559;SDS011;4818;50.860;4.648;2022-11-14T00:42:14;25.80;;;15.40;;
9559;SDS011;4818;50.860;4.648;2022-11-14T00:44:40;27.70;;;14.73;;
9559;SDS011;4818;50.860;4.648;2022-11-14T00:47:07;27.95;;;15.63;;
9559;SDS011;4818;50.860;4.648;2022-11-14T00:49:33;28.48;;;14.57;;
9559;SDS011;4818;50.860;4.648;2022-11-14T00:52:00;23.83;;;14.50;;
9559;SDS011;4818;50.860;4.648;2022-11-14T00:54:26;23.92;;;14.60;;
9559;SDS011;4818;50.860;4.648;2022-11-14T00:56:52;27.73;;;14.20;;
9559;SDS011;4818;50.860;4.648;2022-11-14T00:59:18;19.88;;;12.93;;
9559;SDS011;4818;50.860;4.648;2022-11-14T01:01:45;24.45;;;14.20;;
9559;SDS011;4818;50.860;4.648;2022-11-14T01:04:11;25.38;;;14.57;;
9559;SDS011;4818;50.860;4.648;2022-11-14T01:06:37;24.45;;;14.90;;
9559;SDS011;4818;50.860;4.648;2022-11-14T01:09:03;24.42;;;15.05;;
9559;SDS011;4818;50.860;4.648;2022-11-14T01:11:29;26.83;;;16.05;;
9559;SDS011;4818;50.860;4.648;2022-11-14T01:13:55;21.75;;;13.43;;
9559;SDS011;4818;50.860;4.648;2022-11-14T01:16:22;25.45;;;14.57;;
9559;SDS011;4818;50.860;4.648;2022-11-14T01:18:48;22.70;;;15.05;;
9559;SDS011;4818;50.860;4.648;2022-11-14T01:21:14;21.52;;;14.20;;
9559;SDS011;4818;50.860;4.648;2022-11-14T01:23:41;23.23;;;13.40;;
9559;SDS011;4818;50.860;4.648;2022-11-14T01:26:11;22.30;;;13.88;;
9559;SDS011;4818;50.860;4.648;2022-11-14T01:28:38;19.15;;;12.15;;
9559;SDS011;4818;50.860;4.648;2022-11-14T01:31:09;25.90;;;14.75;;
9559;SDS011;4818;50.860;4.648;2022-11-14T01:33:35;24.60;;;14.55;;
9559;SDS011;4818;50.860;4.648;2022-11-14T01:36:01;24.60;;;13.75;;
9559;SDS011;4818;50.860;4.648;2022-11-14T01:38:28;24.02;;;13.65;;
9559;SDS011;4818;50.860;4.648;2022-11-14T01:40:54;20.55;;;13.48;;
9559;SDS011;4818;50.860;4.648;2022-11-14T01:43:25;22.52;;;14.13;;
9559;SDS011;4818;50.860;4.648;2022-11-14T01:50:47;23.05;;;13.90;;
9559;SDS011;4818;50.860;4.648;2022-11-14T01:53:15;19.42;;;12.93;;
9559;SDS011;4818;50.860;4.648;2022-11-14T01:55:41;22.02;;;13.32;;
9559;SDS011;4818;50.860;4.648;2022-11-14T01:58:08;19.73;;;12.73;;
9559;SDS011;4818;50.860;4.648;2022-11-14T02:00:35;24.52;;;13.02;;
9559;SDS011;4818;50.860;4.648;2022-11-14T02:03:01;22.65;;;13.65;;
9559;SDS011;4818;50.860;4.648;2022-11-14T02:05:28;28.10;;;15.38;;
9559;SDS011;4818;50.860;4.648;2022-11-14T02:07:54;23.73;;;14.90;;
9559;SDS011;4818;50.860;4.648;2022-11-14T02:10:21;24.17;;;13.63;;
9559;SDS011;4818;50.860;4.648;2022-11-14T02:12:47;24.02;;;14.43;;
9559;SDS011;4818;50.860;4.648;2022-11-14T02:15:14;23.75;;;14.63;;
9559;SDS011;4818;50.860;4.648;2022-11-14T02:17:40;25.40;;;15.13;;
9559;SDS011;4818;50.860;4.648;2022-11-14T02:22:37;23.73;;;15.63;;
9559;SDS011;4818;50.860;4.648;2022-11-14T02:25:05;29.58;;;16.52;;
9559;SDS011;4818;50.860;4.648;2022-11-14T02:27:31;27.60;;;16.40;;
9559;SDS011;4818;50.860;4.648;2022-11-14T02:30:04;30.27;;;16.85;;
9559;SDS011;4818;50.860;4.648;2022-11-14T02:32:31;23.48;;;15.27;;
9559;SDS011;4818;50.860;4.648;2022-11-14T02:34:57;22.88;;;14.27;;
9559;SDS011;4818;50.860;4.648;2022-11-14T02:37:23;23.42;;;14.57;;
9559;SDS011;4818;50.860;4.648;2022-11-14T02:39:50;21.63;;;15.45;;
9559;SDS011;4818;50.860;4.648;2022-11-14T02:42:16;27.35;;;15.52;;
9559;SDS011;4818;50.860;4.648;2022-11-14T02:44:42;28.25;;;17.05;;
9559;SDS011;4818;50.860;4.648;2022-11-14T02:47:08;27.58;;;16.70;;
9559;SDS011;4818;50.860;4.648;2022-11-14T02:49:34;30.50;;;16.58;;
9559;SDS011;4818;50.860;4.648;2022-11-14T02:52:01;27.55;;;15.55;;
9559;SDS011;4818;50.860;4.648;2022-11-14T02:54:27;29.45;;;17.55;;
9559;SDS011;4818;50.860;4.648;2022-11-14T02:56:53;30.10;;;17.40;;
9559;SDS011;4818;50.860;4.648;2022-11-14T02:59:19;27.92;;;17.08;;
9559;SDS011;4818;50.860;4.648;2022-11-14T03:01:46;30.38;;;18.13;;
9559;SDS011;4818;50.860;4.648;2022-11-14T03:04:12;31.77;;;17.52;;
9559;SDS011;4818;50.860;4.648;2022-11-14T03:06:38;26.20;;;16.50;;
9559;SDS011;4818;50.860;4.648;2022-11-14T03:09:04;30.10;;;18.88;;
9559;SDS011;4818;50.860;4.648;2022-11-14T03:11:31;25.50;;;15.65;;
9559;SDS011;4818;50.860;4.648;2022-11-14T03:13:58;29.98;;;16.92;;
9559;SDS011;4818;50.860;4.648;2022-11-14T03:16:24;23.35;;;14.93;;
9559;SDS011;4818;50.860;4.648;2022-11-14T03:18:51;23.40;;;14.68;;
9559;SDS011;4818;50.860;4.648;2022-11-14T03:21:18;22.90;;;14.50;;
9559;SDS011;4818;50.860;4.648;2022-11-14T03:23:45;24.48;;;15.80;;
9559;SDS011;4818;50.860;4.648;2022-11-14T03:26:11;21.65;;;13.52;;
9559;SDS011;4818;50.860;4.648;2022-11-14T03:28:38;25.88;;;14.10;;
9559;SDS011;4818;50.860;4.648;2022-11-14T03:31:05;21.42;;;14.35;;
9559;SDS011;4818;50.860;4.648;2022-11-14T03:33:31;22.85;;;14.82;;
9559;SDS011;4818;50.860;4.648;2022-11-14T03:35:58;23.92;;;14.35;;
9559;SDS011;4818;50.860;4.648;2022-11-14T03:38:24;23.17;;;13.55;;
9559;SDS011;4818;50.860;4.648;2022-11-14T03:40:50;22.75;;;13.38;;
9559;SDS011;4818;50.860;4.648;2022-11-14T03:43:17;23.27;;;14.50;;
9559;SDS011;4818;50.860;4.648;2022-11-14T03:45:44;24.55;;;14.65;;
9559;SDS011;4818;50.860;4.648;2022-11-14T03:48:11;23.15;;;15.00;;
9559;SDS011;4818;50.860;4.648;2022-11-14T03:50:37;22.05;;;13.90;;
9559;SDS011;4818;50.860;4.648;2022-11-14T03:53:03;25.75;;;15.05;;
9559;SDS011;4818;50.860;4.648;2022-11-14T03:55:29;26.23;;;13.63;;
9559;SDS011;4818;50.860;4.648;2022-11-14T03:57:55;23.27;;;14.25;;
9559;SDS011;4818;50.860;4.648;2022-11-14T04:00:22;19.88;;;13.52;;
9559;SDS011;4818;50.860;4.648;2022-11-14T04:02:48;23.13;;;13.85;;
9559;SDS011;4818;50.860;4.648;2022-11-14T04:05:14;20.80;;;13.50;;
9559;SDS011;4818;50.860;4.648;2022-11-14T04:07:40;26.15;;;14.60;;
9559;SDS011;4818;50.860;4.648;2022-11-14T04:10:07;26.98;;;15.70;;
9559;SDS011;4818;50.860;4.648;2022-11-14T04:12:33;25.15;;;14.98;;
9559;SDS011;4818;50.860;4.648;2022-11-14T04:14:59;22.65;;;14.30;;
9559;SDS011;4818;50.860;4.648;2022-11-14T04:17:25;23.95;;;13.82;;
9559;SDS011;4818;50.860;4.648;2022-11-14T04:19:52;23.23;;;14.13;;
9559;SDS011;4818;50.860;4.648;2022-11-14T04:22:18;21.08;;;13.98;;
9559;SDS011;4818;50.860;4.648;2022-11-14T04:24:44;24.23;;;14.73;;
9559;SDS011;4818;50.860;4.648;2022-11-14T04:27:10;25.35;;;14.05;;
9559;SDS011;4818;50.860;4.648;2022-11-14T04:29:36;26.65;;;14.73;;
9559;SDS011;4818;50.860;4.648;2022-11-14T04:32:03;23.42;;;14.57;;
9559;SDS011;4818;50.860;4.648;2022-11-14T04:34:29;21.58;;;14.45;;
9559;SDS011;4818;50.860;4.648;2022-11-14T04:36:55;25.98;;;15.30;;
9559;SDS011;4818;50.860;4.648;2022-11-14T04:39:21;26.98;;;15.73;;
9559;SDS011;4818;50.860;4.648;2022-11-14T04:41:48;26.17;;;15.90;;
9559;SDS011;4818;50.860;4.648;2022-11-14T04:44:14;29.48;;;15.65;;
9559;SDS011;4818;50.860;4.648;2022-11-14T04:46:40;29.75;;;16.42;;
9559;SDS011;4818;50.860;4.648;2022-11-14T04:49:06;22.55;;;14.77;;
9559;SDS011;4818;50.860;4.648;2022-11-14T04:51:33;25.65;;;15.05;;
9559;SDS011;4818;50.860;4.648;2022-11-14T04:53:59;26.92;;;16.15;;
9559;SDS011;4818;50.860;4.648;2022-11-14T04:56:25;26.95;;;15.77;;
9559;SDS011;4818;50.860;4.648;2022-11-14T04:58:53;26.17;;;15.23;;
9559;SDS011;4818;50.860;4.648;2022-11-14T05:01:19;29.80;;;16.38;;
9559;SDS011;4818;50.860;4.648;2022-11-14T05:03:45;23.50;;;14.98;;
9559;SDS011;4818;50.860;4.648;2022-11-14T05:06:12;26.80;;;15.48;;
9559;SDS011;4818;50.860;4.648;2022-11-14T05:08:38;22.77;;;14.15;;
9559;SDS011;4818;50.860;4.648;2022-11-14T05:11:04;23.83;;;14.20;;
9559;SDS011;4818;50.860;4.648;2022-11-14T05:13:30;27.05;;;15.25;;
9559;SDS011;4818;50.860;4.648;2022-11-14T05:15:57;20.60;;;13.18;;
9559;SDS011;4818;50.860;4.648;2022-11-14T05:18:24;22.48;;;14.60;;
9559;SDS011;4818;50.860;4.648;2022-11-14T05:20:50;23.05;;;14.95;;
9559;SDS011;4818;50.860;4.648;2022-11-14T05:23:20;24.63;;;14.18;;
9559;SDS011;4818;50.860;4.648;2022-11-14T05:25:47;23.60;;;14.05;;
9559;SDS011;4818;50.860;4.648;2022-11-14T05:28:23;23.55;;;13.95;;
9559;SDS011;4818;50.860;4.648;2022-11-14T05:30:49;23.77;;;13.30;;
9559;SDS011;4818;50.860;4.648;2022-11-14T05:33:15;26.83;;;15.75;;
9559;SDS011;4818;50.860;4.648;2022-11-14T05:35:42;24.25;;;14.63;;
9559;SDS011;4818;50.860;4.648;2022-11-14T05:38:08;25.38;;;14.20;;
9559;SDS011;4818;50.860;4.648;2022-11-14T05:40:35;23.35;;;14.15;;
9559;SDS011;4818;50.860;4.648;2022-11-14T05:43:02;24.92;;;14.70;;
9559;SDS011;4818;50.860;4.648;2022-11-14T05:45:29;29.23;;;15.13;;
9559;SDS011;4818;50.860;4.648;2022-11-14T05:47:55;25.27;;;15.40;;
9559;SDS011;4818;50.860;4.648;2022-11-14T05:50:22;23.15;;;14.95;;
9559;SDS011;4818;50.860;4.648;2022-11-14T05:52:48;27.75;;;15.70;;
9559;SDS011;4818;50.860;4.648;2022-11-14T05:55:14;24.08;;;15.13;;
9559;SDS011;4818;50.860;4.648;2022-11-14T05:57:40;23.52;;;14.68;;
9559;SDS011;4818;50.860;4.648;2022-11-14T06:00:07;27.45;;;14.98;;
9559;SDS011;4818;50.860;4.648;2022-11-14T06:02:39;26.63;;;14.85;;
9559;SDS011;4818;50.860;4.648;2022-11-14T06:05:18;23.65;;;15.00;;
9559;SDS011;4818;50.860;4.648;2022-11-14T06:07:45;26.95;;;14.95;;
9559;SDS011;4818;50.860;4.648;2022-11-14T06:10:11;37.92;;;17.05;;
9559;SDS011;4818;50.860;4.648;2022-11-14T06:12:38;23.48;;;14.68;;
9559;SDS011;4818;50.860;4.648;2022-11-14T06:15:04;26.42;;;16.00;;
9559;SDS011;4818;50.860;4.648;2022-11-14T06:17:30;25.35;;;14.10;;
9559;SDS011;4818;50.860;4.648;2022-11-14T06:19:56;24.30;;;13.68;;
9559;SDS011;4818;50.860;4.648;2022-11-14T06:22:23;24.00;;;15.38;;
9559;SDS011;4818;50.860;4.648;2022-11-14T06:24:49;22.67;;;14.25;;
9559;SDS011;4818;50.860;4.648;2022-11-14T06:27:15;24.88;;;15.30;;
9559;SDS011;4818;50.860;4.648;2022-11-14T06:29:41;24.60;;;14.25;;
9559;SDS011;4818;50.860;4.648;2022-11-14T06:32:07;22.20;;;13.73;;
9559;SDS011;4818;50.860;4.648;2022-11-14T06:34:34;23.30;;;14.70;;
9559;SDS011;4818;50.860;4.648;2022-11-14T06:37:00;20.65;;;13.95;;
9559;SDS011;4818;50.860;4.648;2022-11-14T06:39:26;25.05;;;14.48;;
9559;SDS011;4818;50.860;4.648;2022-11-14T06:41:56;22.23;;;14.52;;
9559;SDS011;4818;50.860;4.648;2022-11-14T06:44:22;25.95;;;14.73;;
9559;SDS011;4818;50.860;4.648;2022-11-14T06:46:48;24.90;;;14.32;;
9559;SDS011;4818;50.860;4.648;2022-11-14T06:49:15;24.70;;;14.32;;
9559;SDS011;4818;50.860;4.648;2022-11-14T06:51:41;23.27;;;14.07;;
9559;SDS011;4818;50.860;4.648;2022-11-14T06:54:10;24.70;;;15.60;;
9559;SDS011;4818;50.860;4.648;2022-11-14T06:56:39;22.02;;;13.60;;
9559;SDS011;4818;50.860;4.648;2022-11-14T06:59:06;25.08;;;15.65;;
9559;SDS011;4818;50.860;4.648;2022-11-14T07:01:32;25.08;;;14.98;;
9559;SDS011;4818;50.860;4.648;2022-11-14T07:03:58;23.83;;;13.77;;
9559;SDS011;4818;50.860;4.648;2022-11-14T07:06:26;24.35;;;14.13;;
9559;SDS011;4818;50.860;4.648;2022-11-14T07:08:53;28.00;;;16.92;;
9559;SDS011;4818;50.860;4.648;2022-11-14T07:11:21;29.25;;;18.60;;
9559;SDS011;4818;50.860;4.648;2022-11-14T07:13:48;29.45;;;16.83;;
9559;SDS011;4818;50.860;4.648;2022-11-14T07:16:15;23.67;;;14.57;;
9559;SDS011;4818;50.860;4.648;2022-11-14T07:18:41;23.35;;;13.80;;
9559;SDS011;4818;50.860;4.648;2022-11-14T07:21:07;22.85;;;14.15;;
9559;SDS011;4818;50.860;4.648;2022-11-14T07:23:33;25.75;;;13.80;;
9559;SDS011;4818;50.860;4.648;2022-11-14T07:26:03;20.25;;;12.82;;
9559;SDS011;4818;50.860;4.648;2022-11-14T07:28:33;20.85;;;13.57;;
9559;SDS011;4818;50.860;4.648;2022-11-14T07:31:04;27.25;;;13.50;;
9559;SDS011;4818;50.860;4.648;2022-11-14T07:33:30;25.63;;;14.63;;
9559;SDS011;4818;50.860;4.648;2022-11-14T07:35:57;23.23;;;13.63;;
9559;SDS011;4818;50.860;4.648;2022-11-14T07:38:23;26.38;;;15.15;;
9559;SDS011;4818;50.860;4.648;2022-11-14T07:43:19;28.63;;;16.60;;
9559;SDS011;4818;50.860;4.648;2022-11-14T07:45:45;26.17;;;17.13;;
9559;SDS011;4818;50.860;4.648;2022-11-14T07:48:11;22.20;;;13.85;;
9559;SDS011;4818;50.860;4.648;2022-11-14T07:50:38;18.45;;;12.45;;
9559;SDS011;4818;50.860;4.648;2022-11-14T07:53:04;18.88;;;12.25;;
9559;SDS011;4818;50.860;4.648;2022-11-14T07:55:31;18.40;;;11.05;;
9559;SDS011;4818;50.860;4.648;2022-11-14T07:58:00;15.98;;;11.48;;
9559;SDS011;4818;50.860;4.648;2022-11-14T08:00:26;19.75;;;12.50;;
9559;SDS011;4818;50.860;4.648;2022-11-14T08:02:52;16.80;;;11.60;;
9559;SDS011;4818;50.860;4.648;2022-11-14T08:05:23;19.20;;;11.35;;
9559;SDS011;4818;50.860;4.648;2022-11-14T08:07:50;20.15;;;14.57;;
9559;SDS011;4818;50.860;4.648;2022-11-14T08:10:16;20.23;;;13.48;;
9559;SDS011;4818;50.860;4.648;2022-11-14T08:12:43;18.20;;;13.50;;
9559;SDS011;4818;50.860;4.648;2022-11-14T08:15:14;16.33;;;11.85;;
9559;SDS011;4818;50.860;4.648;2022-11-14T08:17:40;17.27;;;11.15;;
9559;SDS011;4818;50.860;4.648;2022-11-14T08:20:07;16.77;;;11.70;;
9559;SDS011;4818;50.860;4.648;2022-11-14T08:22:34;17.15;;;12.70;;
9559;SDS011;4818;50.860;4.648;2022-11-14T08:25:00;16.67;;;11.30;;
9559;SDS011;4818;50.860;4.648;2022-11-14T08:27:26;14.40;;;9.75;;
9559;SDS011;4818;50.860;4.648;2022-11-14T08:29:52;15.20;;;9.43;;
9559;SDS011;4818;50.860;4.648;2022-11-14T08:32:18;14.38;;;9.65;;
9559;SDS011;4818;50.860;4.648;2022-11-14T08:34:45;10.55;;;9.20;;
9559;SDS011;4818;50.860;4.648;2022-11-14T08:37:11;15.60;;;10.45;;
9559;SDS011;4818;50.860;4.648;2022-11-14T08:39:37;10.38;;;9.27;;
9559;SDS011;4818;50.860;4.648;2022-11-14T08:42:04;12.75;;;9.00;;
9559;SDS011;4818;50.860;4.648;2022-11-14T08:44:30;11.20;;;8.80;;
9559;SDS011;4818;50.860;4.648;2022-11-14T08:46:56;13.73;;;8.82;;
9559;SDS011;4818;50.860;4.648;2022-11-14T08:49:24;8.50;;;7.60;;
9559;SDS011;4818;50.860;4.648;2022-11-14T08:51:51;10.30;;;7.60;;
9559;SDS011;4818;50.860;4.648;2022-11-14T08:54:18;11.93;;;6.50;;
9559;SDS011;4818;50.860;4.648;2022-11-14T08:56:44;8.45;;;7.43;;
9559;SDS011;4818;50.860;4.648;2022-11-14T08:59:10;10.57;;;7.15;;
9559;SDS011;4818;50.860;4.648;2022-11-14T09:01:36;9.27;;;7.18;;
9559;SDS011;4818;50.860;4.648;2022-11-14T09:04:03;12.18;;;7.55;;
9559;SDS011;4818;50.860;4.648;2022-11-14T09:06:31;9.00;;;6.63;;
9559;SDS011;4818;50.860;4.648;2022-11-14T09:08:57;8.45;;;6.47;;
9559;SDS011;4818;50.860;4.648;2022-11-14T09:11:23;8.55;;;6.40;;
9559;SDS011;4818;50.860;4.648;2022-11-14T09:13:49;9.15;;;6.47;;
9559;SDS011;4818;50.860;4.648;2022-11-14T09:16:16;8.85;;;6.32;;
9559;SDS011;4818;50.860;4.648;2022-11-14T09:18:42;7.63;;;5.85;;
9559;SDS011;4818;50.860;4.648;2022-11-14T09:21:09;11.40;;;6.78;;
9559;SDS011;4818;50.860;4.648;2022-11-14T09:23:35;14.20;;;6.70;;
9559;SDS011;4818;50.860;4.648;2022-11-14T09:26:05;7.15;;;6.40;;
9559;SDS011;4818;50.860;4.648;2022-11-14T09:28:31;9.10;;;7.13;;
9559;SDS011;4818;50.860;4.648;2022-11-14T09:31:01;7.53;;;6.30;;
9559;SDS011;4818;50.860;4.648;2022-11-14T09:33:28;8.55;;;5.88;;
9559;SDS011;4818;50.860;4.648;2022-11-14T09:35:58;9.07;;;7.00;;
9559;SDS011;4818;50.860;4.648;2022-11-14T09:38:24;8.75;;;6.22;;
9559;SDS011;4818;50.860;4.648;2022-11-14T09:45:55;10.63;;;5.65;;
9559;SDS011;4818;50.860;4.648;2022-11-14T09:48:22;6.03;;;5.32;;
9559;SDS011;4818;50.860;4.648;2022-11-14T09:51:06;8.13;;;6.25;;
9559;SDS011;4818;50.860;4.648;2022-11-14T09:56:13;9.65;;;5.88;;
9559;SDS011;4818;50.860;4.648;2022-11-14T09:58:42;11.07;;;5.95;;
9559;SDS011;4818;50.860;4.648;2022-11-14T10:03:47;8.23;;;5.75;;
9559;SDS011;4818;50.860;4.648;2022-11-14T10:14:02;7.82;;;5.28;;
9559;SDS011;4818;50.860;4.648;2022-11-14T10:19:34;6.60;;;5.40;;
9559;SDS011;4818;50.860;4.648;2022-11-14T10:27:17;8.48;;;5.88;;
9559;SDS011;4818;50.860;4.648;2022-11-14T10:29:53;7.05;;;5.75;;
9559;SDS011;4818;50.860;4.648;2022-11-14T10:32:49;6.40;;;5.28;;
9559;SDS011;4818;50.860;4.648;2022-11-14T10:35:33;10.85;;;6.07;;
9559;SDS011;4818;50.860;4.648;2022-11-14T10:38:14;11.13;;;6.40;;
9559;SDS011;4818;50.860;4.648;2022-11-14T10:40:43;10.05;;;6.72;;
9559;SDS011;4818;50.860;4.648;2022-11-14T10:45:41;7.22;;;5.68;;
9559;SDS011;4818;50.860;4.648;2022-11-14T10:53:13;10.00;;;6.18;;
9559;SDS011;4818;50.860;4.648;2022-11-14T10:55:39;10.00;;;6.40;;
9559;SDS011;4818;50.860;4.648;2022-11-14T10:58:09;10.23;;;6.25;;
9559;SDS011;4818;50.860;4.648;2022-11-14T11:03:01;10.30;;;6.25;;
9559;SDS011;4818;50.860;4.648;2022-11-14T11:05:28;9.45;;;6.63;;
9559;SDS011;4818;50.860;4.648;2022-11-14T11:07:57;13.57;;;6.70;;
9559;SDS011;4818;50.860;4.648;2022-11-14T11:10:44;12.38;;;7.20;;
9559;SDS011;4818;50.860;4.648;2022-11-14T11:13:30;10.68;;;7.40;;
9559;SDS011;4818;50.860;4.648;2022-11-14T11:15:58;12.85;;;7.80;;
9559;SDS011;4818;50.860;4.648;2022-11-14T11:21:27;13.30;;;8.60;;
9559;SDS011;4818;50.860;4.648;2022-11-14T11:23:50;15.60;;;8.40;;
9559;SDS011;4818;50.860;4.648;2022-11-14T11:26:21;11.80;;;7.75;;
9559;SDS011;4818;50.860;4.648;2022-11-14T11:29:05;15.10;;;8.77;;
9559;SDS011;4818;50.860;4.648;2022-11-14T11:34:25;19.27;;;10.27;;
9559;SDS011;4818;50.860;4.648;2022-11-14T11:36:59;15.07;;;9.95;;
9559;SDS011;4818;50.860;4.648;2022-11-14T11:39:30;16.08;;;10.48;;
9559;SDS011;4818;50.860;4.648;2022-11-14T11:41:58;17.23;;;10.45;;
9559;SDS011;4818;50.860;4.648;2022-11-14T11:44:32;17.10;;;12.13;;
9559;SDS011;4818;50.860;4.648;2022-11-14T11:47:00;20.63;;;13.43;;
9559;SDS011;4818;50.860;4.648;2022-11-14T11:54:25;23.55;;;14.93;;
9559;SDS011;4818;50.860;4.648;2022-11-14T11:56:54;28.90;;;15.10;;
9559;SDS011;4818;50.860;4.648;2022-11-14T12:02:21;21.85;;;13.65;;
9559;SDS011;4818;50.860;4.648;2022-11-14T12:04:48;24.77;;;14.18;;
9559;SDS011;4818;50.860;4.648;2022-11-14T12:07:17;26.42;;;14.15;;
9559;SDS011;4818;50.860;4.648;2022-11-14T12:09:45;27.05;;;14.13;;
9559;SDS011;4818;50.860;4.648;2022-11-14T12:12:24;24.13;;;13.43;;
9559;SDS011;4818;50.860;4.648;2022-11-14T12:17:30;28.70;;;15.40;;
9559;SDS011;4818;50.860;4.648;2022-11-14T12:20:06;23.95;;;13.23;;
9559;SDS011;4818;50.860;4.648;2022-11-14T12:30:28;31.83;;;12.40;;
9559;SDS011;4818;50.860;4.648;2022-11-14T12:33:29;20.17;;;10.90;;
9559;SDS011;4818;50.860;4.648;2022-11-14T12:35:52;19.48;;;11.52;;
9559;SDS011;4818;50.860;4.648;2022-11-14T12:38:19;18.92;;;10.73;;
9559;SDS011;4818;50.860;4.648;2022-11-14T12:40:50;19.92;;;10.77;;
9559;SDS011;4818;50.860;4.648;2022-11-14T12:43:27;24.45;;;12.13;;
9559;SDS011;4818;50.860;4.648;2022-11-14T12:45:55;20.55;;;11.95;;
9559;SDS011;4818;50.860;4.648;2022-11-14T12:48:27;22.33;;;11.63;;
9559;SDS011;4818;50.860;4.648;2022-11-14T12:50:57;23.95;;;12.27;;
9559;SDS011;4818;50.860;4.648;2022-11-14T12:58:49;20.77;;;11.93;;
9559;SDS011;4818;50.860;4.648;2022-11-14T13:01:23;20.92;;;12.52;;
9559;SDS011;4818;50.860;4.648;2022-11-14T13:09:26;22.30;;;11.35;;
9559;SDS011;4818;50.860;4.648;2022-11-14T13:11:55;19.58;;;10.77;;
9559;SDS011;4818;50.860;4.648;2022-11-14T13:14:52;19.73;;;10.82;;
9559;SDS011;4818;50.860;4.648;2022-11-14T13:17:53;28.30;;;11.05;;
9559;SDS011;4818;50.860;4.648;2022-11-14T13:20:59;21.80;;;11.32;;
9559;SDS011;4818;50.860;4.648;2022-11-14T13:28:49;20.92;;;12.00;;
9559;SDS011;4818;50.860;4.648;2022-11-14T13:36:09;19.65;;;11.85;;
9559;SDS011;4818;50.860;4.648;2022-11-14T13:38:45;17.65;;;11.02;;
9559;SDS011;4818;50.860;4.648;2022-11-14T13:41:24;22.27;;;12.20;;
9559;SDS011;4818;50.860;4.648;2022-11-14T13:43:59;22.27;;;11.73;;
9559;SDS011;4818;50.860;4.648;2022-11-14T13:46:46;17.13;;;9.77;;
9559;SDS011;4818;50.860;4.648;2022-11-14T13:52:02;19.52;;;11.32;;
9559;SDS011;4818;50.860;4.648;2022-11-14T13:54:29;22.92;;;12.25;;
9559;SDS011;4818;50.860;4.648;2022-11-14T13:57:16;26.70;;;13.57;;
9559;SDS011;4818;50.860;4.648;2022-11-14T14:07:23;27.40;;;14.95;;
9559;SDS011;4818;50.860;4.648;2022-11-14T14:27:58;28.00;;;17.05;;
9559;SDS011;4818;50.860;4.648;2022-11-14T14:30:27;33.95;;;16.95;;
9559;SDS011;4818;50.860;4.648;2022-11-14T14:35:33;30.02;;;18.10;;
9559;SDS011;4818;50.860;4.648;2022-11-14T14:38:00;31.95;;;18.17;;
9559;SDS011;4818;50.860;4.648;2022-11-14T14:40:27;31.10;;;17.58;;
9559;SDS011;4818;50.860;4.648;2022-11-14T14:42:54;30.42;;;18.73;;
9559;SDS011;4818;50.860;4.648;2022-11-14T14:45:25;31.10;;;18.40;;
9559;SDS011;4818;50.860;4.648;2022-11-14T14:48:13;33.83;;;19.30;;
9559;SDS011;4818;50.860;4.648;2022-11-14T14:50:41;28.67;;;18.20;;
9559;SDS011;4818;50.860;4.648;2022-11-14T14:53:18;28.58;;;17.33;;
9559;SDS011;4818;50.860;4.648;2022-11-14T14:56:20;30.15;;;18.20;;
9559;SDS011;4818;50.860;4.648;2022-11-14T14:58:40;27.13;;;16.73;;
9559;SDS011;4818;50.860;4.648;2022-11-14T15:01:13;32.58;;;17.73;;
9559;SDS011;4818;50.860;4.648;2022-11-14T15:03:42;27.00;;;16.02;;
9559;SDS011;4818;50.860;4.648;2022-11-14T15:06:23;25.70;;;14.60;;
9559;SDS011;4818;50.860;4.648;2022-11-14T15:08:54;30.10;;;16.48;;
9559;SDS011;4818;50.860;4.648;2022-11-14T15:11:21;28.27;;;15.63;;
9559;SDS011;4818;50.860;4.648;2022-11-14T15:13:52;27.02;;;15.98;;
9559;SDS011;4818;50.860;4.648;2022-11-14T15:16:19;27.25;;;15.82;;
9559;SDS011;4818;50.860;4.648;2022-11-14T15:18:47;25.25;;;15.02;;
9559;SDS011;4818;50.860;4.648;2022-11-14T15:23:41;25.55;;;14.85;;
9559;SDS011;4818;50.860;4.648;2022-11-14T15:26:16;26.23;;;15.98;;
9559;SDS011;4818;50.860;4.648;2022-11-14T15:28:43;32.05;;;15.75;;
9559;SDS011;4818;50.860;4.648;2022-11-14T15:31:17;26.85;;;15.10;;
9559;SDS011;4818;50.860;4.648;2022-11-14T15:33:44;26.52;;;14.80;;
9559;SDS011;4818;50.860;4.648;2022-11-14T15:36:14;26.85;;;15.48;;
9559;SDS011;4818;50.860;4.648;2022-11-14T15:39:00;26.55;;;14.88;;
9559;SDS011;4818;50.860;4.648;2022-11-14T15:41:27;22.98;;;13.82;;
9559;SDS011;4818;50.860;4.648;2022-11-14T15:43:54;22.77;;;14.35;;
9559;SDS011;4818;50.860;4.648;2022-11-14T15:46:40;26.90;;;14.98;;
9559;SDS011;4818;50.860;4.648;2022-11-14T15:49:08;25.88;;;15.82;;
9559;SDS011;4818;50.860;4.648;2022-11-14T15:51:45;26.30;;;14.98;;
9559;SDS011;4818;50.860;4.648;2022-11-14T15:56:48;28.90;;;15.05;;
9559;SDS011;4818;50.860;4.648;2022-11-14T15:59:14;23.65;;;14.45;;
9559;SDS011;4818;50.860;4.648;2022-11-14T16:01:40;24.65;;;13.57;;
9559;SDS011;4818;50.860;4.648;2022-11-14T16:04:10;27.98;;;15.18;;
9559;SDS011;4818;50.860;4.648;2022-11-14T16:06:37;24.75;;;14.18;;
9559;SDS011;4818;50.860;4.648;2022-11-14T16:09:04;22.33;;;13.32;;
9559;SDS011;4818;50.860;4.648;2022-11-14T16:11:30;22.58;;;12.95;;
9559;SDS011;4818;50.860;4.648;2022-11-14T16:13:58;23.42;;;14.07;;
9559;SDS011;4818;50.860;4.648;2022-11-14T16:16:24;25.55;;;13.55;;
9559;SDS011;4818;50.860;4.648;2022-11-14T16:18:51;30.08;;;14.30;;
9559;SDS011;4818;50.860;4.648;2022-11-14T16:21:17;25.30;;;14.15;;
9559;SDS011;4818;50.860;4.648;2022-11-14T16:23:43;20.15;;;13.10;;
9559;SDS011;4818;50.860;4.648;2022-11-14T16:26:10;22.42;;;13.45;;
9559;SDS011;4818;50.860;4.648;2022-11-14T16:28:36;24.48;;;12.63;;
9559;SDS011;4818;50.860;4.648;2022-11-14T16:31:04;23.20;;;12.63;;
9559;SDS011;4818;50.860;4.648;2022-11-14T16:33:30;22.08;;;12.45;;
9559;SDS011;4818;50.860;4.648;2022-11-14T16:35:57;20.80;;;12.05;;
9559;SDS011;4818;50.860;4.648;2022-11-14T16:38:23;20.95;;;12.25;;
9559;SDS011;4818;50.860;4.648;2022-11-14T16:40:49;18.15;;;10.88;;
9559;SDS011;4818;50.860;4.648;2022-11-14T16:43:15;17.80;;;11.07;;
9559;SDS011;4818;50.860;4.648;2022-11-14T16:45:42;18.92;;;11.25;;
9559;SDS011;4818;50.860;4.648;2022-11-14T16:48:08;19.15;;;12.25;;
9559;SDS011;4818;50.860;4.648;2022-11-14T16:50:36;22.15;;;11.65;;
9559;SDS011;4818;50.860;4.648;2022-11-14T16:53:02;17.60;;;10.63;;
9559;SDS011;4818;50.860;4.648;2022-11-14T16:55:28;20.20;;;11.63;;
9559;SDS011;4818;50.860;4.648;2022-11-14T16:57:54;17.75;;;11.35;;
9559;SDS011;4818;50.860;4.648;2022-11-14T17:00:20;19.90;;;11.30;;
9559;SDS011;4818;50.860;4.648;2022-11-14T17:02:47;17.77;;;10.52;;
9559;SDS011;4818;50.860;4.648;2022-11-14T17:05:13;18.70;;;9.98;;